Taiwan Taoyuan International Airport
RCTP : now visible

Airfield :











YOU CAN JOIN US ON...

 
LOGIN :

Register | Disclaimer

   EN    FR    IT 

 









Legend :    VFR   Marginal VFR   IFR   Intensive IFR   Very Intensive IFR
Visi :
Ceiling :
>= 8 km
>= 3000ft
5 to 8 km
1000 to 3000 ft
1500m to 5 km
500 to 1000 ft
800 to 1500m
200 to 500 ft
< 800m
< 200 ft
Symbols :   Thunderstorms  Fog  Heavy snow  Heavy precipitations  Wind > 20 kt






- Airport Elevation : 106 ft
- IATA code : TPE


RCTP - Taiwan Taoyuan International

CURRENT METAR :
  • 271300Z 05018KT 9999 FEW012 BKN022 BKN050 18/17 Q1020 NOSIG RMK A3014

EXPIRED METARs :
  • 271230Z 05019KT 9999 FEW012 BKN018 BKN030 18/17 Q1021 NOSIG RMK A3015
  • 271200Z 05020KT 9999 FEW012 BKN016 BKN030 18/17 Q1020 NOSIG RMK A3014
  • 271130Z 05018KT 9999 FEW010 BKN018 BKN025 18/17 Q1020 NOSIG RMK A3014
  • 271100Z 05018KT 9000 FEW010 BKN020 BKN030 18/17 Q1021 NOSIG RMK A3015

TAF TAF RCTP
Valid from the 27 at 12:00 until the 28 at 18:00 UTC


271100Z 2712/2818 04015KT 8000 FEW016 BKN023
TEMPO 2718/2724 08007KT FEW007 BKN014
TEMPO 2800/2804 12005KT FEW016 BKN032
BECMG 2804/2806 26007KT 6000
TEMPO 2808/2813 23005KT 4000 BR FEW008 BKN011



MET'MAP, your aeronautical weather chart ! - Copyright ORBIFLY December 2007 - Disclaimer

ORBIFLY MET'MAP TEAM :

Programming & Development : Alexandra Zaïnal
Concept & original design : Baudouin d'Aumeries
Assistance for programming : Marc-Olivier Méhu
Technical & hardware support : Manuel Goepfert

Contact : metmap@orbifly.com




SOURCES & CREDITS :

   NOAA       Earth
Advisory